createdAt,value
2022-07-30T00:00:24.859Z,58.83
2022-07-30T00:02:52.890Z,59.09
2022-07-30T00:05:20.251Z,58.77
2022-07-30T00:07:47.712Z,58.97
2022-07-30T00:10:14.949Z,59.19
2022-07-30T00:12:42.196Z,59.12
2022-07-30T00:15:09.809Z,58.90
2022-07-30T00:17:37.136Z,58.96
2022-07-30T00:20:04.729Z,59.10
2022-07-30T00:22:32.290Z,59.08
2022-07-30T00:24:59.549Z,58.83
2022-07-30T00:27:26.750Z,59.32
2022-07-30T00:29:53.829Z,59.06
2022-07-30T00:32:21.029Z,59.45
2022-07-30T00:34:48.190Z,58.45
2022-07-30T00:37:15.268Z,59.17
2022-07-30T00:39:42.791Z,59.32
2022-07-30T00:42:09.888Z,58.84
2022-07-30T00:44:37.188Z,59.01
2022-07-30T00:47:08.340Z,58.73
2022-07-30T00:49:35.448Z,58.27
2022-07-30T00:52:02.597Z,58.49
2022-07-30T00:54:29.737Z,58.74
2022-07-30T00:56:57.090Z,58.54
2022-07-30T00:59:24.348Z,58.64
2022-07-30T01:01:51.589Z,58.80
2022-07-30T01:04:18.748Z,58.68
2022-07-30T01:06:45.868Z,59.29
2022-07-30T01:09:13.209Z,61.02
2022-07-30T01:11:42.648Z,61.65
2022-07-30T01:14:10.115Z,61.02
2022-07-30T01:16:39.085Z,61.01
2022-07-30T01:19:32.552Z,60.62
2022-07-30T01:22:30.278Z,60.51
2022-07-30T01:25:20.228Z,60.47
2022-07-30T01:28:10.668Z,60.84
2022-07-30T01:30:43.408Z,60.26
2022-07-30T01:33:14.854Z,60.10
2022-07-30T01:35:45.368Z,59.74
2022-07-30T01:38:16.808Z,59.63
2022-07-30T01:40:46.075Z,59.09
2022-07-30T01:43:14.168Z,59.40
2022-07-30T01:45:44.401Z,59.20
2022-07-30T01:48:15.197Z,59.40
2022-07-30T01:50:48.295Z,59.84
2022-07-30T01:53:18.547Z,59.75
2022-07-30T01:55:46.849Z,59.69
2022-07-30T01:58:16.827Z,60.02
2022-07-30T02:00:48.362Z,59.96
2022-07-30T02:03:15.577Z,59.46
2022-07-30T02:05:50.015Z,60.12
2022-07-30T02:08:24.467Z,60.04
2022-07-30T02:10:58.108Z,60.32
2022-07-30T02:13:28.909Z,60.71
2022-07-30T02:16:31.301Z,60.45
2022-07-30T02:19:06.097Z,60.15
2022-07-30T02:21:50.518Z,59.52
2022-07-30T02:24:22.247Z,58.87
2022-07-30T02:26:55.087Z,58.60
2022-07-30T02:29:24.049Z,58.75
2022-07-30T02:31:52.988Z,58.90
2022-07-30T02:34:23.928Z,58.79
2022-07-30T02:36:52.957Z,58.90
2022-07-30T02:39:22.569Z,59.62
2022-07-30T02:41:50.567Z,59.84
2022-07-30T02:44:19.288Z,59.81
2022-07-30T02:46:48.341Z,60.53
2022-07-30T02:49:32.008Z,60.58
2022-07-30T02:52:01.847Z,60.56
2022-07-30T02:54:31.501Z,61.00
2022-07-30T02:57:02.260Z,61.31
2022-07-30T02:59:31.490Z,61.21
2022-07-30T03:02:01.072Z,61.66
2022-07-30T03:04:29.834Z,61.05
2022-07-30T03:06:58.311Z,61.18
2022-07-30T03:09:26.487Z,61.18
2022-07-30T03:12:14.948Z,61.96
2022-07-30T03:14:42.249Z,62.24
2022-07-30T03:17:15.237Z,62.95
2022-07-30T03:19:46.447Z,63.88
2022-07-30T03:22:16.668Z,62.31
2022-07-30T03:24:46.387Z,64.33
2022-07-30T03:27:14.668Z,64.19
2022-07-30T03:29:43.047Z,64.42
2022-07-30T03:32:12.929Z,64.11
2022-07-30T03:34:43.776Z,64.55
2022-07-30T03:37:12.928Z,64.90
2022-07-30T03:39:41.018Z,65.08
2022-07-30T03:42:08.356Z,64.83
2022-07-30T03:44:37.490Z,64.58
2022-07-30T03:47:07.408Z,64.79
2022-07-30T03:49:41.267Z,65.56
2022-07-30T03:52:11.138Z,65.29
2022-07-30T03:54:39.348Z,65.25
2022-07-30T03:57:26.291Z,65.01
2022-07-30T03:59:53.588Z,64.72
2022-07-30T04:02:21.947Z,64.89
2022-07-30T04:05:19.927Z,65.06
2022-07-30T04:07:49.575Z,65.93
2022-07-30T04:10:20.027Z,65.94
2022-07-30T04:13:00.427Z,65.96
2022-07-30T04:16:16.709Z,65.77
2022-07-30T04:18:20.227Z,65.77
2022-07-30T04:20:51.148Z,65.78
2022-07-30T04:23:19.887Z,66.04
2022-07-30T04:25:47.687Z,65.87
2022-07-30T04:28:15.176Z,65.58
2022-07-30T04:30:42.508Z,65.88
2022-07-30T04:33:09.728Z,65.91
2022-07-30T04:36:10.042Z,65.96
2022-07-30T04:38:38.968Z,65.98
2022-07-30T04:41:06.189Z,65.50
2022-07-30T04:43:53.555Z,65.42
2022-07-30T04:46:23.277Z,65.29
2022-07-30T04:48:52.471Z,65.22
2022-07-30T04:51:39.594Z,64.94
2022-07-30T04:54:15.315Z,65.14
2022-07-30T04:56:53.638Z,65.32
2022-07-30T04:59:25.296Z,65.53
2022-07-30T05:01:56.201Z,65.67
2022-07-30T05:04:25.406Z,66.15
2022-07-30T05:06:55.028Z,66.23
2022-07-30T05:09:22.851Z,65.93
2022-07-30T05:11:54.270Z,66.23
2022-07-30T05:14:22.188Z,65.79
2022-07-30T05:16:50.490Z,65.34
2022-07-30T05:19:19.508Z,65.41
2022-07-30T05:21:46.873Z,65.46
2022-07-30T05:24:14.767Z,65.43
2022-07-30T05:26:49.089Z,65.53
2022-07-30T05:29:20.051Z,65.27
2022-07-30T05:32:03.338Z,65.45
2022-07-30T05:34:34.487Z,65.46
2022-07-30T05:37:02.094Z,65.22
2022-07-30T05:39:29.747Z,65.56
2022-07-30T05:42:15.308Z,65.38
2022-07-30T05:44:51.689Z,65.42
2022-07-30T05:47:21.188Z,65.85
2022-07-30T05:49:50.292Z,65.70
2022-07-30T05:52:18.116Z,65.70
2022-07-30T05:54:45.798Z,65.68
2022-07-30T05:57:39.428Z,65.57
2022-07-30T06:00:07.968Z,65.57
2022-07-30T06:02:43.768Z,64.79
2022-07-30T06:05:20.112Z,65.10
2022-07-30T06:07:47.408Z,65.01
2022-07-30T06:10:15.789Z,64.90
2022-07-30T06:12:42.788Z,64.94
2022-07-30T06:15:11.355Z,65.67
2022-07-30T06:17:52.048Z,65.59
2022-07-30T06:20:42.989Z,65.66
2022-07-30T06:23:23.233Z,65.29
2022-07-30T06:26:22.717Z,65.50
2022-07-30T06:28:50.649Z,65.93
2022-07-30T06:31:24.328Z,65.59
2022-07-30T06:33:52.282Z,65.80
2022-07-30T06:36:20.048Z,66.05
2022-07-30T06:38:57.953Z,65.84
2022-07-30T06:41:38.748Z,67.02
2022-07-30T06:44:05.887Z,67.49
2022-07-30T06:46:51.724Z,66.94
2022-07-30T06:49:22.097Z,66.57
2022-07-30T06:51:49.275Z,66.92
2022-07-30T06:54:16.735Z,66.44
2022-07-30T06:56:52.806Z,66.63
2022-07-30T06:59:19.990Z,66.63
2022-07-30T07:02:13.216Z,66.82
2022-07-30T07:04:57.236Z,66.17
2022-07-30T07:07:40.662Z,65.68
2022-07-30T07:10:11.195Z,66.03
2022-07-30T07:12:40.916Z,65.96
2022-07-30T07:15:08.993Z,65.64
2022-07-30T07:17:35.886Z,66.03
2022-07-30T07:20:06.125Z,66.26
2022-07-30T07:22:41.132Z,66.05
2022-07-30T07:25:09.407Z,66.05
2022-07-30T07:27:37.905Z,65.83
2022-07-30T07:30:07.407Z,65.97
2022-07-30T07:32:37.599Z,66.28
2022-07-30T07:35:06.308Z,66.00
2022-07-30T07:37:36.175Z,66.40
2022-07-30T07:40:06.415Z,65.83
2022-07-30T07:42:38.427Z,66.72
2022-07-30T07:45:07.575Z,66.24
2022-07-30T07:47:52.072Z,65.80
2022-07-30T07:50:46.878Z,65.31
2022-07-30T07:53:22.867Z,66.01
2022-07-30T07:55:50.015Z,66.19
2022-07-30T07:58:26.577Z,65.11
2022-07-30T08:00:57.818Z,65.07
2022-07-30T08:03:44.875Z,65.61
2022-07-30T08:06:31.887Z,65.76
2022-07-30T08:09:17.215Z,66.17
2022-07-30T08:12:09.145Z,65.80
2022-07-30T08:14:54.925Z,65.44
2022-07-30T08:17:54.113Z,65.49
2022-07-30T08:20:35.889Z,66.19
2022-07-30T08:23:03.182Z,66.42
2022-07-30T08:25:30.496Z,66.40
2022-07-30T08:27:57.576Z,66.56
2022-07-30T08:30:25.141Z,66.98
2022-07-30T08:32:52.165Z,66.43
2022-07-30T08:35:19.326Z,67.19
2022-07-30T08:37:46.596Z,65.84
2022-07-30T08:40:15.159Z,67.30
2022-07-30T08:42:53.186Z,67.63
2022-07-30T08:45:34.520Z,66.83
2022-07-30T08:48:16.767Z,65.81
2022-07-30T08:50:46.346Z,66.58
2022-07-30T08:53:34.315Z,66.20
2022-07-30T08:56:07.025Z,65.97
2022-07-30T08:58:35.581Z,65.50
2022-07-30T09:01:04.135Z,65.09
2022-07-30T09:03:31.485Z,64.65
2022-07-30T09:06:05.025Z,64.01
2022-07-30T09:08:32.446Z,64.59
2022-07-30T09:11:00.205Z,63.91
2022-07-30T09:13:34.715Z,63.64
2022-07-30T09:16:03.136Z,63.34
2022-07-30T09:18:42.704Z,63.02
2022-07-30T09:21:42.895Z,61.83
2022-07-30T09:24:42.255Z,62.10
2022-07-30T09:27:46.633Z,62.06
2022-07-30T09:30:50.676Z,62.03
2022-07-30T09:33:42.465Z,61.44
2022-07-30T09:36:33.496Z,61.52
2022-07-30T09:39:39.436Z,61.39
2022-07-30T09:42:26.155Z,61.68
2022-07-30T09:45:13.635Z,62.47
2022-07-30T09:47:45.436Z,62.02
2022-07-30T09:50:29.601Z,61.48
2022-07-30T09:53:09.456Z,61.32
2022-07-30T09:55:41.926Z,61.27
2022-07-30T09:58:13.020Z,61.06
2022-07-30T10:00:59.771Z,61.04
2022-07-30T10:03:46.498Z,60.57
2022-07-30T10:06:35.395Z,60.02
2022-07-30T10:09:37.115Z,60.23
2022-07-30T10:12:10.464Z,60.14
2022-07-30T10:14:44.316Z,60.11
2022-07-30T10:17:15.415Z,59.48
2022-07-30T10:20:08.803Z,58.86
2022-07-30T10:22:56.929Z,59.15
2022-07-30T10:25:36.783Z,58.89
2022-07-30T10:28:39.561Z,58.18
2022-07-30T10:31:47.396Z,58.19
2022-07-30T10:33:54.384Z,57.68
2022-07-30T10:36:23.897Z,57.72
2022-07-30T10:38:53.166Z,57.72
2022-07-30T10:41:42.328Z,57.60
2022-07-30T10:44:45.967Z,57.77
2022-07-30T10:47:16.844Z,57.61
2022-07-30T10:50:10.585Z,57.92
2022-07-30T10:52:53.763Z,57.31
2022-07-30T10:55:36.860Z,57.18
2022-07-30T10:58:14.403Z,56.35
2022-07-30T11:13:09.233Z,57.40
2022-07-30T11:15:58.195Z,57.02
2022-07-30T11:18:29.087Z,56.94
2022-07-30T11:21:15.195Z,56.74
2022-07-30T11:23:43.165Z,57.18
2022-07-30T11:26:14.322Z,57.20
2022-07-30T11:28:49.157Z,57.10
2022-07-30T11:31:58.746Z,56.65
2022-07-30T11:34:28.318Z,56.53
2022-07-30T11:37:18.741Z,56.43
2022-07-30T11:39:55.653Z,55.12
2022-07-30T11:42:26.711Z,55.67
2022-07-30T11:45:04.734Z,55.83
2022-07-30T11:47:31.965Z,55.58
2022-07-30T11:49:58.924Z,55.19
2022-07-30T11:52:25.965Z,56.65
2022-07-30T11:54:54.968Z,55.76
2022-07-30T11:57:39.274Z,55.50
2022-07-30T12:00:07.255Z,55.53
2022-07-30T12:02:41.698Z,55.61
2022-07-30T12:05:08.804Z,55.54
2022-07-30T12:07:35.744Z,55.97
2022-07-30T12:10:26.962Z,56.18
2022-07-30T12:13:07.942Z,55.50
2022-07-30T12:15:37.347Z,56.01
2022-07-30T12:18:25.790Z,54.83
2022-07-30T12:21:06.812Z,55.03
2022-07-30T12:23:34.054Z,55.71
2022-07-30T12:26:01.074Z,56.20
2022-07-30T12:28:30.315Z,55.24
2022-07-30T12:30:59.155Z,54.57
2022-07-30T12:33:27.006Z,54.60
2022-07-30T12:35:56.594Z,53.60
2022-07-30T12:38:25.644Z,55.15
2022-07-30T12:40:59.515Z,55.94
2022-07-30T12:43:49.924Z,55.13
2022-07-30T12:46:28.177Z,55.73
2022-07-30T12:48:55.318Z,56.44
2022-07-30T12:51:25.004Z,56.13
2022-07-30T12:53:54.093Z,56.77
2022-07-30T12:56:29.477Z,56.99
2022-07-30T12:59:00.006Z,56.51
2022-07-30T13:01:43.472Z,57.27
2022-07-30T13:04:11.276Z,57.57
2022-07-30T13:06:40.394Z,57.39
2022-07-30T13:09:07.664Z,56.54
2022-07-30T13:11:49.456Z,56.41
2022-07-30T13:14:17.528Z,55.66
2022-07-30T13:16:44.864Z,54.63
2022-07-30T13:19:12.926Z,53.70
2022-07-30T13:21:49.381Z,54.29
2022-07-30T13:24:18.597Z,53.61
2022-07-30T13:26:46.104Z,53.89
2022-07-30T13:29:13.935Z,51.93
2022-07-30T13:31:43.178Z,51.57
2022-07-30T13:34:12.696Z,49.55
2022-07-30T13:36:40.208Z,48.51
2022-07-30T13:39:07.445Z,46.66
2022-07-30T13:41:36.326Z,45.98
2022-07-30T13:44:04.544Z,45.36
2022-07-30T13:46:31.634Z,44.54
2022-07-30T13:48:58.723Z,44.77
2022-07-30T13:51:26.134Z,42.64
2022-07-30T13:53:53.141Z,41.40
2022-07-30T13:56:20.150Z,41.62
2022-07-30T13:58:48.364Z,40.17
2022-07-30T14:01:18.061Z,39.08
2022-07-30T14:03:50.111Z,39.27
2022-07-30T14:06:19.046Z,36.52
2022-07-30T14:08:46.303Z,36.51
2022-07-30T14:11:13.325Z,36.46
2022-07-30T14:13:40.324Z,35.29
2022-07-30T14:16:28.547Z,34.95
2022-07-30T14:18:55.773Z,34.95
2022-07-30T14:21:22.786Z,35.48
2022-07-30T14:23:49.832Z,36.56
2022-07-30T14:26:16.835Z,36.80
2022-07-30T14:28:43.874Z,37.55
2022-07-30T14:31:10.985Z,37.41
2022-07-30T14:33:37.994Z,37.75
2022-07-30T14:36:05.177Z,38.42
2022-07-30T14:38:32.125Z,38.40
2022-07-30T14:40:59.144Z,37.53
2022-07-30T14:43:28.104Z,38.88
2022-07-30T14:45:55.133Z,39.50
2022-07-30T14:48:22.217Z,38.09
2022-07-30T14:51:12.074Z,39.35
2022-07-30T14:53:36.273Z,38.26
2022-07-30T14:56:03.692Z,37.27
2022-07-30T14:58:30.716Z,36.37
2022-07-30T15:00:57.683Z,36.96
2022-07-30T15:03:25.920Z,36.59
2022-07-30T15:05:53.144Z,36.04
2022-07-30T15:08:20.684Z,37.16
2022-07-30T15:10:47.741Z,36.65
2022-07-30T15:13:15.246Z,36.51
2022-07-30T15:15:46.068Z,35.83
2022-07-30T15:18:13.816Z,36.10
2022-07-30T15:20:40.935Z,35.82
2022-07-30T15:23:13.079Z,36.12
2022-07-30T15:25:41.176Z,37.84
2022-07-30T15:28:08.064Z,38.66
2022-07-30T15:30:35.384Z,39.63
2022-07-30T15:33:02.481Z,40.04
2022-07-30T15:35:29.414Z,39.53
2022-07-30T15:37:56.421Z,34.60
2022-07-30T15:40:23.654Z,29.02
2022-07-30T15:42:51.088Z,28.21
2022-07-30T15:45:18.726Z,28.12
2022-07-30T15:47:46.247Z,28.40
2022-07-30T15:50:13.694Z,28.38
2022-07-30T15:52:40.764Z,27.61
2022-07-30T15:55:08.024Z,27.72
2022-07-30T15:57:35.037Z,26.75
2022-07-30T16:00:02.534Z,26.97
2022-07-30T16:02:39.014Z,27.14
2022-07-30T16:05:09.499Z,26.04
2022-07-30T16:07:40.284Z,25.26
2022-07-30T16:10:07.614Z,24.92
2022-07-30T16:12:34.617Z,25.02
2022-07-30T16:15:01.625Z,25.04
2022-07-30T16:17:28.644Z,24.58
2022-07-30T16:19:55.702Z,24.95
2022-07-30T16:22:24.365Z,25.03
2022-07-30T16:24:51.788Z,25.16
2022-07-30T16:27:19.155Z,25.68
2022-07-30T16:29:46.132Z,25.16
2022-07-30T16:32:13.179Z,25.20
2022-07-30T16:34:40.135Z,25.49
2022-07-30T16:37:07.154Z,26.21
2022-07-30T16:39:34.154Z,26.57
2022-07-30T16:42:01.475Z,26.74
2022-07-30T16:44:32.202Z,26.66
2022-07-30T16:46:59.210Z,27.37
2022-07-30T16:49:26.704Z,27.76
2022-07-30T16:51:54.374Z,27.86
2022-07-30T16:54:21.624Z,27.96
2022-07-30T16:56:52.925Z,28.20
2022-07-30T16:59:20.814Z,28.59
2022-07-30T17:01:48.414Z,28.58
2022-07-30T17:04:15.678Z,28.50
2022-07-30T17:06:44.575Z,29.02
2022-07-30T17:09:15.792Z,29.15
2022-07-30T17:11:48.105Z,29.71
2022-07-30T17:14:22.377Z,29.20
2022-07-30T17:16:50.516Z,29.78
2022-07-30T17:19:17.825Z,29.95
2022-07-30T17:21:44.797Z,30.11
2022-07-30T17:24:13.717Z,30.36
2022-07-30T17:26:43.638Z,30.17
2022-07-30T17:29:15.688Z,30.94
2022-07-30T17:31:46.274Z,30.91
2022-07-30T17:34:15.825Z,31.60
2022-07-30T17:36:51.831Z,33.75
2022-07-30T17:40:26.551Z,33.11
2022-07-30T17:42:07.711Z,34.99
2022-07-30T17:44:35.696Z,36.09
2022-07-30T17:47:03.206Z,35.93
2022-07-30T17:49:30.658Z,35.91
2022-07-30T17:51:57.856Z,36.35
2022-07-30T17:54:24.915Z,36.08
2022-07-30T17:56:52.177Z,34.10
2022-07-30T17:59:19.544Z,33.47
2022-07-30T18:01:46.620Z,33.84
2022-07-30T18:04:13.604Z,34.48
2022-07-30T18:06:40.767Z,34.25
2022-07-30T18:09:07.777Z,34.62
2022-07-30T18:11:34.816Z,34.47
2022-07-30T18:14:01.836Z,32.75
2022-07-30T18:16:28.845Z,32.54
2022-07-30T18:18:55.926Z,32.41
2022-07-30T18:21:22.957Z,32.65
2022-07-30T18:23:49.956Z,32.49
2022-07-30T18:26:17.036Z,33.58
2022-07-30T18:28:44.062Z,33.61
2022-07-30T18:31:11.055Z,33.04
2022-07-30T18:33:38.155Z,33.72
2022-07-30T18:36:05.385Z,34.14
2022-07-30T18:38:32.407Z,33.86
2022-07-30T18:40:59.625Z,34.20
2022-07-30T18:43:30.715Z,34.44
2022-07-30T18:45:58.815Z,35.49
2022-07-30T18:48:25.608Z,37.05
2022-07-30T18:50:55.656Z,37.66
2022-07-30T18:53:22.795Z,37.93
2022-07-30T18:55:49.815Z,38.37
2022-07-30T18:58:17.236Z,38.43
2022-07-30T19:00:44.380Z,38.65
2022-07-30T19:03:17.552Z,39.74
2022-07-30T19:05:48.206Z,39.61
2022-07-30T19:08:15.257Z,39.57
2022-07-30T19:10:42.326Z,40.31
2022-07-30T19:13:09.735Z,40.78
2022-07-30T19:15:36.715Z,40.04
2022-07-30T19:18:03.986Z,40.71
2022-07-30T19:20:31.095Z,41.28
2022-07-30T19:23:03.792Z,41.50
2022-07-30T19:25:33.366Z,42.15
2022-07-30T19:28:04.575Z,42.17
2022-07-30T19:30:33.347Z,42.07
2022-07-30T19:33:05.885Z,41.79
2022-07-30T19:35:33.523Z,41.38
2022-07-30T19:38:00.614Z,41.80
2022-07-30T19:40:28.469Z,42.07
2022-07-30T19:42:59.985Z,41.95
2022-07-30T19:45:27.185Z,42.24
2022-07-30T19:48:14.156Z,42.10
2022-07-30T19:50:41.875Z,42.22
2022-07-30T19:53:09.645Z,42.68
2022-07-30T19:55:37.794Z,42.47
2022-07-30T19:58:15.849Z,42.45
2022-07-30T20:00:49.253Z,42.16
2022-07-30T20:03:34.967Z,42.47
2022-07-30T20:06:02.131Z,42.21
2022-07-30T20:08:29.933Z,43.10
2022-07-30T20:10:59.433Z,43.07
2022-07-30T20:13:44.020Z,42.93
2022-07-30T20:16:18.214Z,43.57
2022-07-30T20:18:46.925Z,43.61
2022-07-30T20:21:16.346Z,43.82
2022-07-30T20:23:45.190Z,43.91
2022-07-30T20:26:14.569Z,43.93
2022-07-30T20:28:52.165Z,43.95
2022-07-30T20:31:20.221Z,44.49
2022-07-30T20:33:50.055Z,44.91
2022-07-30T20:36:18.372Z,45.92
2022-07-30T20:38:47.387Z,46.62
2022-07-30T20:41:14.934Z,46.28
2022-07-30T20:43:51.849Z,46.64
2022-07-30T20:46:23.461Z,46.82
2022-07-30T20:48:52.029Z,47.40
2022-07-30T20:51:19.244Z,47.35
2022-07-30T20:53:47.272Z,48.37
2022-07-30T20:56:16.785Z,47.77
2022-07-30T20:58:47.426Z,46.91
2022-07-30T21:01:17.531Z,47.06
2022-07-30T21:03:47.624Z,47.48
2022-07-30T21:06:15.325Z,48.46
2022-07-30T21:08:42.324Z,47.95
2022-07-30T21:11:09.615Z,48.39
2022-07-30T21:13:37.166Z,47.79
2022-07-30T21:16:15.845Z,48.39
2022-07-30T21:18:49.253Z,48.76
2022-07-30T21:21:28.922Z,49.01
2022-07-30T21:24:05.328Z,49.16
2022-07-30T21:26:32.387Z,48.25
2022-07-30T21:29:00.934Z,49.11
2022-07-30T21:31:34.926Z,48.78
2022-07-30T21:34:15.385Z,48.72
2022-07-30T21:36:43.313Z,48.45
2022-07-30T21:39:10.326Z,48.05
2022-07-30T21:41:41.324Z,48.24
2022-07-30T21:44:09.837Z,48.49
2022-07-30T21:46:38.156Z,48.46
2022-07-30T21:49:07.307Z,49.17
2022-07-30T21:51:35.046Z,48.98
2022-07-30T21:54:07.051Z,48.64
2022-07-30T21:56:34.480Z,48.99
2022-07-30T21:59:08.936Z,49.13
2022-07-30T22:01:37.937Z,48.39
2022-07-30T22:04:24.885Z,48.59
2022-07-30T22:06:54.510Z,48.42
2022-07-30T22:09:34.232Z,48.80
2022-07-30T22:12:06.507Z,49.52
2022-07-30T22:14:37.263Z,49.62
2022-07-30T22:17:04.631Z,49.51
2022-07-30T22:19:32.774Z,49.96
2022-07-30T22:22:01.913Z,50.06
2022-07-30T22:24:32.668Z,50.07
2022-07-30T22:27:11.863Z,50.72
2022-07-30T22:29:43.372Z,49.95
2022-07-30T22:32:12.237Z,49.77
2022-07-30T22:34:39.479Z,49.66
2022-07-30T22:37:12.635Z,50.83
2022-07-30T22:42:28.136Z,51.08
2022-07-30T22:44:55.509Z,50.30
2022-07-30T22:47:51.176Z,50.95
2022-07-30T22:50:10.809Z,51.33
2022-07-30T22:52:50.153Z,50.76
2022-07-30T22:55:23.983Z,51.07
2022-07-30T22:57:51.563Z,51.51
2022-07-30T23:00:28.301Z,51.38
2022-07-30T23:02:56.481Z,50.76
2022-07-30T23:05:24.085Z,50.48
2022-07-30T23:07:51.324Z,50.55
2022-07-30T23:12:33.097Z,50.46
2022-07-30T23:12:34.389Z,50.91
2022-07-30T23:15:53.156Z,51.52
2022-07-30T23:18:20.114Z,52.27
2022-07-30T23:20:47.095Z,51.77
2022-07-30T23:23:14.312Z,51.45
2022-07-30T23:25:41.313Z,51.20
2022-07-30T23:28:08.303Z,50.78
2022-07-30T23:30:35.312Z,51.09
2022-07-30T23:33:02.954Z,51.19
2022-07-30T23:35:30.636Z,50.72
2022-07-30T23:37:57.654Z,51.05
2022-07-30T23:40:24.852Z,51.35
2022-07-30T23:42:52.717Z,51.22
2022-07-30T23:45:20.392Z,51.43
2022-07-30T23:47:58.018Z,51.13
2022-07-30T23:50:32.700Z,51.81
2022-07-30T23:53:01.291Z,51.51
2022-07-30T23:55:28.978Z,52.28
2022-07-30T23:57:56.312Z,52.64
